createdAt,value
2022-11-05T00:01:36.070Z,97235.97
2022-11-05T00:04:03.482Z,97240.78
2022-11-05T00:06:31.992Z,97238.13
2022-11-05T00:08:59.094Z,97250.88
2022-11-05T00:11:26.219Z,97250.31
2022-11-05T00:13:53.322Z,97256.25
2022-11-05T00:16:20.422Z,97262.19
2022-11-05T00:18:47.534Z,97264.88
2022-11-05T00:21:14.618Z,97265.94
2022-11-05T00:23:43.039Z,97267.56
2022-11-05T00:26:11.578Z,97262.22
2022-11-05T00:28:39.618Z,97265.13
2022-11-05T00:31:08.828Z,97256.97
2022-11-05T00:33:36.370Z,97253.78
2022-11-05T00:36:04.635Z,97270.16
2022-11-05T00:38:31.853Z,97270.66
2022-11-05T00:41:00.657Z,97273.84
2022-11-05T00:43:28.052Z,97278.47
2022-11-05T00:45:55.406Z,97282.16
2022-11-05T00:48:22.562Z,97277.41
2022-11-05T00:50:49.669Z,97280.88
2022-11-05T00:53:16.765Z,97284.97
2022-11-05T00:55:45.344Z,97284.19
2022-11-05T00:58:15.498Z,97290.38
2022-11-05T01:00:44.090Z,97297.97
2022-11-05T01:03:14.362Z,97294.19
2022-11-05T01:05:43.561Z,97291.81
2022-11-05T01:08:11.227Z,97305.00
2022-11-05T01:10:43.462Z,97303.69
2022-11-05T01:13:13.218Z,97303.69
2022-11-05T01:15:42.429Z,97304.22
2022-11-05T01:18:09.982Z,97299.38
2022-11-05T01:20:37.194Z,97299.34
2022-11-05T01:23:08.872Z,97292.56
2022-11-05T01:25:39.165Z,97296.28
2022-11-05T01:28:06.373Z,97304.06
2022-11-05T01:30:33.470Z,97304.09
2022-11-05T01:33:02.010Z,97307.00
2022-11-05T01:35:29.532Z,97301.13
2022-11-05T01:37:56.640Z,97317.19
2022-11-05T01:40:24.993Z,97327.97
2022-11-05T01:42:52.105Z,97323.47
2022-11-05T01:45:21.730Z,97330.50
2022-11-05T01:47:56.391Z,97327.25
2022-11-05T01:50:39.662Z,97329.19
2022-11-05T01:53:12.956Z,97336.50
2022-11-05T01:55:43.396Z,97335.97
2022-11-05T01:58:14.223Z,97329.81
2022-11-05T02:00:43.022Z,97336.25
2022-11-05T02:03:13.305Z,97324.97
2022-11-05T02:05:42.700Z,97327.91
2022-11-05T02:08:15.595Z,97335.38
2022-11-05T02:10:45.736Z,97340.53
2022-11-05T02:13:13.210Z,97335.91
2022-11-05T02:15:57.241Z,97334.50
2022-11-05T02:18:36.194Z,97334.75
2022-11-05T02:21:27.306Z,97336.13
2022-11-05T02:24:26.552Z,97330.16
2022-11-05T02:27:16.139Z,97325.63
2022-11-05T02:30:07.543Z,97323.22
2022-11-05T02:32:57.736Z,97316.56
2022-11-05T02:35:42.763Z,97334.31
2022-11-05T02:38:17.521Z,97333.00
2022-11-05T02:40:52.683Z,97333.56
2022-11-05T02:43:28.224Z,97334.06
2022-11-05T02:46:03.285Z,97325.47
2022-11-05T02:48:45.021Z,97335.13
2022-11-05T02:51:18.223Z,97329.75
2022-11-05T02:53:50.887Z,97334.94
2022-11-05T02:56:22.497Z,97331.75
2022-11-05T02:58:49.572Z,97332.44
2022-11-05T03:01:16.979Z,97332.94
2022-11-05T03:03:48.732Z,97329.75
2022-11-05T03:06:48.110Z,97335.69
2022-11-05T03:09:38.804Z,97336.97
2022-11-05T03:12:18.134Z,97332.13
2022-11-05T03:14:52.952Z,97335.84
2022-11-05T03:17:42.633Z,97342.31
2022-11-05T03:20:19.581Z,97348.03
2022-11-05T03:22:51.937Z,97347.19
2022-11-05T03:25:22.449Z,97356.88
2022-11-05T03:27:55.945Z,97360.13
2022-11-05T03:30:23.514Z,97349.66
2022-11-05T03:32:56.757Z,97360.19
2022-11-05T03:35:29.082Z,97358.84
2022-11-05T03:38:02.265Z,97363.69
2022-11-05T03:40:35.021Z,97369.06
2022-11-05T03:43:06.494Z,97379.03
2022-11-05T03:45:38.202Z,97381.47
2022-11-05T03:48:07.815Z,97391.19
2022-11-05T03:50:41.634Z,97397.34
2022-11-05T03:53:15.174Z,97405.34
2022-11-05T03:55:51.217Z,97414.25
2022-11-05T03:58:19.765Z,97411.50
2022-11-05T04:00:47.853Z,97422.78
2022-11-05T04:03:14.958Z,97424.94
2022-11-05T04:05:43.703Z,97427.31
2022-11-05T04:08:14.296Z,97442.16
2022-11-05T04:10:42.310Z,97427.13
2022-11-05T04:13:11.513Z,97445.69
2022-11-05T04:15:38.845Z,97452.16
2022-11-05T04:18:05.941Z,97453.78
2022-11-05T04:20:33.042Z,97455.16
2022-11-05T04:23:03.693Z,97450.63
2022-11-05T04:25:30.869Z,97460.28
2022-11-05T04:27:59.722Z,97461.91
2022-11-05T04:30:27.256Z,97464.09
2022-11-05T04:33:03.156Z,97459.75
2022-11-05T04:35:31.929Z,97457.06
2022-11-05T04:37:59.410Z,97445.84
2022-11-05T04:40:28.097Z,97455.16
2022-11-05T04:42:56.151Z,97456.53
2022-11-05T04:45:23.673Z,97461.59
2022-11-05T04:47:50.953Z,97464.00
2022-11-05T04:50:18.041Z,97466.69
2022-11-05T04:52:45.149Z,97466.69
2022-11-05T04:55:12.400Z,97469.59
2022-11-05T04:57:41.052Z,97472.59
2022-11-05T05:00:09.102Z,97471.28
2022-11-05T05:02:36.752Z,97475.81
2022-11-05T05:05:04.812Z,97471.81
2022-11-05T05:07:32.421Z,97477.47
2022-11-05T05:09:59.634Z,97476.69
2022-11-05T05:12:26.719Z,97476.16
2022-11-05T05:14:55.242Z,97481.28
2022-11-05T05:17:22.586Z,97482.91
2022-11-05T05:19:49.776Z,97485.63
2022-11-05T05:22:16.935Z,97488.31
2022-11-05T05:24:47.355Z,97488.84
2022-11-05T05:27:17.113Z,97491.56
2022-11-05T05:29:44.227Z,97488.03
2022-11-05T05:32:12.651Z,97497.16
2022-11-05T05:34:39.758Z,97493.66
2022-11-05T05:37:06.999Z,97503.31
2022-11-05T05:39:34.093Z,97496.03
2022-11-05T05:42:01.199Z,97496.84
2022-11-05T05:44:28.298Z,97501.69
2022-11-05T05:46:55.466Z,97505.97
2022-11-05T05:49:23.914Z,97500.34
2022-11-05T05:51:51.293Z,97496.59
2022-11-05T05:54:18.392Z,97501.69
2022-11-05T05:56:45.894Z,97506.81
2022-11-05T05:59:13.007Z,97510.34
2022-11-05T06:01:40.515Z,97510.88
2022-11-05T06:04:09.215Z,97513.75
2022-11-05T06:06:37.740Z,97518.09
2022-11-05T06:09:04.833Z,97518.09
2022-11-05T06:11:31.931Z,97531.34
2022-11-05T06:13:59.048Z,97536.72
2022-11-05T06:16:26.157Z,97533.19
2022-11-05T06:18:53.253Z,97535.09
2022-11-05T06:21:20.693Z,97542.59
2022-11-05T06:23:49.112Z,97539.94
2022-11-05T06:26:18.068Z,97556.59
2022-11-05T06:28:45.637Z,97542.59
2022-11-05T06:31:14.255Z,97552.03
2022-11-05T06:33:41.862Z,97559.00
2022-11-05T06:36:14.398Z,97559.56
2022-11-05T06:38:41.620Z,97560.94
2022-11-05T06:41:10.667Z,97554.47
2022-11-05T06:43:38.570Z,97568.97
2022-11-05T06:46:06.141Z,97556.63
2022-11-05T06:48:33.666Z,97577.31
2022-11-05T06:51:00.931Z,97571.38
2022-11-05T06:53:28.048Z,97581.88
2022-11-05T06:55:55.243Z,97579.44
2022-11-05T06:58:23.722Z,97580.25
2022-11-05T07:00:51.058Z,97589.13
2022-11-05T07:03:18.214Z,97598.91
2022-11-05T07:05:48.087Z,97609.13
2022-11-05T07:08:15.667Z,97610.50
2022-11-05T07:10:44.574Z,97593.28
2022-11-05T07:13:12.313Z,97616.38
2022-11-05T07:15:41.052Z,97612.34
2022-11-05T07:18:08.190Z,97622.84
2022-11-05T07:20:35.419Z,97621.16
2022-11-05T07:23:03.115Z,97609.59
2022-11-05T07:25:31.405Z,97622.72
2022-11-05T07:27:58.774Z,97622.13
2022-11-05T07:30:26.289Z,97616.50
2022-11-05T07:32:54.768Z,97636.91
2022-11-05T07:35:22.218Z,97640.94
2022-11-05T07:37:51.011Z,97636.38
2022-11-05T07:40:18.759Z,97638.03
2022-11-05T07:42:47.235Z,97640.47
2022-11-05T07:45:14.423Z,97631.31
2022-11-05T07:47:46.444Z,97616.78
2022-11-05T07:50:16.126Z,97631.00
2022-11-05T07:52:43.494Z,97632.63
2022-11-05T07:55:11.250Z,97638.78
2022-11-05T07:57:41.817Z,97642.81
2022-11-05T08:00:10.543Z,97642.81
2022-11-05T08:02:37.863Z,97650.66
2022-11-05T08:05:05.307Z,97645.00
2022-11-05T08:07:33.964Z,97648.53
2022-11-05T08:10:01.213Z,97660.41
2022-11-05T08:12:28.305Z,97665.78
2022-11-05T08:14:55.393Z,97660.94
2022-11-05T08:17:22.488Z,97666.31
2022-11-05T08:19:49.728Z,97668.19
2022-11-05T08:22:16.841Z,97676.00
2022-11-05T08:24:45.379Z,97674.94
2022-11-05T08:27:12.548Z,97683.53
2022-11-05T08:29:39.776Z,97684.09
2022-11-05T08:32:06.891Z,97685.44
2022-11-05T08:34:34.153Z,97681.16
2022-11-05T08:37:01.326Z,97685.22
2022-11-05T08:39:28.643Z,97687.59
2022-11-05T08:41:57.165Z,97687.88
2022-11-05T08:44:24.322Z,97690.28
2022-11-05T08:46:51.642Z,97697.84
2022-11-05T08:49:18.744Z,97691.34
2022-11-05T08:51:45.877Z,97700.81
2022-11-05T08:54:13.487Z,97688.72
2022-11-05T08:56:40.628Z,97705.66
2022-11-05T08:59:09.121Z,97709.41
2022-11-05T09:01:36.331Z,97700.53
2022-11-05T09:04:03.901Z,97706.44
2022-11-05T09:06:31.123Z,97703.22
2022-11-05T09:08:58.230Z,97705.91
2022-11-05T09:11:43.035Z,97705.38
2022-11-05T09:14:13.887Z,97717.22
2022-11-05T09:16:42.695Z,97712.88
2022-11-05T09:19:09.812Z,97706.97
2022-11-05T09:21:36.921Z,97721.53
2022-11-05T09:24:04.251Z,97717.50
2022-11-05T09:26:31.341Z,97721.81
2022-11-05T09:28:58.425Z,97728.28
2022-11-05T09:31:26.921Z,97730.41
2022-11-05T09:33:54.069Z,97735.25
2022-11-05T09:36:21.170Z,97730.69
2022-11-05T09:38:48.289Z,97735.81
2022-11-05T09:41:26.778Z,97738.75
2022-11-05T09:43:57.896Z,97737.41
2022-11-05T09:46:28.587Z,97741.47
2022-11-05T09:49:00.480Z,97739.28
2022-11-05T09:51:27.677Z,97740.91
2022-11-05T09:53:54.981Z,97737.41
2022-11-05T09:56:24.601Z,97736.59
2022-11-05T09:58:56.396Z,97734.41
2022-11-05T10:01:29.398Z,97739.00
2022-11-05T10:03:59.608Z,97727.97
2022-11-05T10:06:27.690Z,97742.22
2022-11-05T10:09:02.180Z,97751.94
2022-11-05T10:11:34.215Z,97751.66
2022-11-05T10:14:07.431Z,97751.13
2022-11-05T10:16:39.797Z,97746.31
2022-11-05T10:19:13.349Z,97753.56
2022-11-05T10:24:27.966Z,97756.78
2022-11-05T10:26:56.163Z,97758.69
2022-11-05T10:29:26.907Z,97749.81
2022-11-05T10:31:57.197Z,97760.03
2022-11-05T10:34:28.706Z,97753.28
2022-11-05T10:36:55.822Z,97752.22
2022-11-05T10:39:25.431Z,97757.59
2022-11-05T10:42:06.882Z,97767.81
2022-11-05T10:44:39.688Z,97767.28
2022-11-05T10:47:38.338Z,97765.13
2022-11-05T10:50:10.019Z,97766.47
2022-11-05T10:52:39.296Z,97767.28
2022-11-05T10:55:15.962Z,97767.53
2022-11-05T10:57:43.090Z,97768.34
2022-11-05T11:00:27.175Z,97767.53
2022-11-05T11:02:58.672Z,97761.06
2022-11-05T11:05:28.647Z,97774.53
2022-11-05T11:07:59.710Z,97769.69
2022-11-05T11:10:27.670Z,97769.19
2022-11-05T11:12:56.404Z,97761.91
2022-11-05T11:15:26.598Z,97765.41
2022-11-05T11:17:54.463Z,97769.16
2022-11-05T11:20:26.395Z,97771.34
2022-11-05T11:23:03.802Z,97767.00
2022-11-05T11:25:37.767Z,97772.41
2022-11-05T11:28:06.818Z,97771.59
2022-11-05T11:30:34.061Z,97766.75
2022-11-05T11:33:06.878Z,97776.19
2022-11-05T11:35:37.594Z,97771.06
2022-11-05T11:38:07.037Z,97781.00
2022-11-05T11:40:36.532Z,97775.09
2022-11-05T11:43:13.190Z,97781.81
2022-11-05T11:45:46.504Z,97779.66
2022-11-05T11:48:17.118Z,97784.22
2022-11-05T11:50:47.257Z,97785.03
2022-11-05T11:53:29.977Z,97781.53
2022-11-05T11:56:00.058Z,97797.41
2022-11-05T11:58:38.326Z,97789.34
2022-11-05T12:01:17.391Z,97785.59
2022-11-05T12:03:49.114Z,97784.00
2022-11-05T12:06:26.926Z,97789.91
2022-11-05T12:09:06.773Z,97794.75
2022-11-05T12:11:39.598Z,97800.41
2022-11-05T12:14:19.859Z,97785.06
2022-11-05T12:17:28.225Z,97793.91
2022-11-05T12:20:23.314Z,97792.88
2022-11-05T12:23:26.493Z,97786.94
2022-11-05T12:26:03.677Z,97790.72
2022-11-05T12:29:12.203Z,97791.25
2022-11-05T12:31:38.569Z,97741.75
2022-11-05T12:34:22.447Z,97795.56
2022-11-05T12:37:05.495Z,97794.19
2022-11-05T12:39:54.572Z,97792.31
2022-11-05T12:42:40.354Z,97785.03
2022-11-05T12:45:22.378Z,97785.31
2022-11-05T12:48:04.330Z,97799.31
2022-11-05T12:50:37.997Z,97791.53
2022-11-05T12:53:25.307Z,97803.09
2022-11-05T12:55:57.406Z,97793.69
2022-11-05T12:58:30.359Z,97786.94
2022-11-05T13:01:01.567Z,97797.16
2022-11-05T13:03:40.139Z,97803.63
2022-11-05T13:06:11.231Z,97797.44
2022-11-05T13:08:44.510Z,97803.34
2022-11-05T13:11:19.278Z,97812.75
2022-11-05T13:14:01.417Z,97813.84
2022-11-05T13:16:33.429Z,97816.00
2022-11-05T13:19:07.030Z,97817.34
2022-11-05T13:21:36.107Z,97818.97
2022-11-05T13:24:07.613Z,97817.09
2022-11-05T13:26:43.551Z,97821.13
2022-11-05T13:29:16.477Z,97811.16
2022-11-05T13:31:49.684Z,97817.09
2022-11-05T13:34:16.787Z,97818.69
2022-11-05T13:36:51.109Z,97827.31
2022-11-05T13:39:23.265Z,97797.16
2022-11-05T13:42:22.592Z,97830.00
2022-11-05T13:45:18.875Z,97834.03
2022-11-05T13:48:19.234Z,97835.38
2022-11-05T13:51:16.093Z,97840.75
2022-11-05T13:54:08.572Z,97831.59
2022-11-05T13:56:57.026Z,97830.25
2022-11-05T13:59:49.792Z,97846.69
2022-11-05T14:02:20.287Z,97837.25
2022-11-05T14:04:50.316Z,97829.19
2022-11-05T14:07:20.788Z,97841.03
2022-11-05T14:09:54.779Z,97840.25
2022-11-05T14:12:25.705Z,97838.06
2022-11-05T14:15:03.319Z,97835.38
2022-11-05T14:17:53.232Z,97844.81
2022-11-05T14:20:37.506Z,97844.78
2022-11-05T14:23:37.888Z,97845.34
2022-11-05T14:26:24.258Z,97845.34
2022-11-05T14:29:22.325Z,97848.84
2022-11-05T14:32:11.025Z,97839.13
2022-11-05T14:34:44.363Z,97838.09
2022-11-05T14:37:24.342Z,97848.03
2022-11-05T14:39:53.297Z,97852.06
2022-11-05T14:42:25.449Z,97853.13
2022-11-05T14:45:02.494Z,97846.13
2022-11-05T14:47:33.884Z,97871.44
2022-11-05T14:50:07.849Z,97859.84
2022-11-05T14:52:37.245Z,97871.19
2022-11-05T14:55:06.416Z,97862.03
2022-11-05T14:58:16.059Z,97865.25
2022-11-05T15:00:47.972Z,97877.38
2022-11-05T15:03:35.325Z,97881.41
2022-11-05T15:06:18.869Z,97880.34
2022-11-05T15:09:28.926Z,97875.22
2022-11-05T15:12:04.042Z,97877.38
2022-11-05T15:14:34.761Z,97880.09
2022-11-05T15:17:25.154Z,97882.50
2022-11-05T15:19:54.572Z,97883.56
2022-11-05T15:22:29.272Z,97882.22
2022-11-05T15:24:56.614Z,97880.34
2022-11-05T15:27:43.152Z,97886.81
2022-11-05T15:30:18.923Z,97883.84
2022-11-05T15:32:46.739Z,97887.91
2022-11-05T15:35:23.254Z,97884.38
2022-11-05T15:37:55.928Z,97890.88
2022-11-05T15:40:27.907Z,97887.88
2022-11-05T15:43:16.943Z,97886.81
2022-11-05T15:45:57.118Z,97889.25
2022-11-05T15:48:24.315Z,97891.66
2022-11-05T15:50:52.908Z,97891.09
2022-11-05T15:56:22.270Z,97891.09
2022-11-05T15:58:52.674Z,97891.38
2022-11-05T16:01:22.160Z,97881.19
2022-11-05T16:03:51.301Z,97894.38
2022-11-05T16:06:20.137Z,97900.28
2022-11-05T16:08:49.107Z,97897.56
2022-11-05T16:11:23.391Z,97903.78
2022-11-05T16:13:50.960Z,97886.50
2022-11-05T16:16:25.822Z,97905.41
2022-11-05T16:18:53.234Z,97908.34
2022-11-05T16:21:21.714Z,97896.22
2022-11-05T16:23:53.826Z,97915.34
2022-11-05T16:27:00.709Z,97917.75
2022-11-05T16:29:23.560Z,97916.16
2022-11-05T16:31:52.504Z,97918.84
2022-11-05T16:34:26.047Z,97912.38
2022-11-05T16:36:56.206Z,97915.66
2022-11-05T16:39:23.577Z,97911.59
2022-11-05T16:41:50.777Z,97918.84
2022-11-05T16:44:17.921Z,97925.59
2022-11-05T16:46:47.919Z,97926.38
2022-11-05T16:49:15.810Z,97906.16
2022-11-05T16:51:43.037Z,97936.34
2022-11-05T16:54:11.456Z,97942.00
2022-11-05T16:56:39.077Z,97948.19
2022-11-05T16:59:07.232Z,97949.00
2022-11-05T17:01:36.816Z,97953.03
2022-11-05T17:04:04.017Z,97959.78
2022-11-05T17:06:31.107Z,97961.09
2022-11-05T17:08:58.193Z,97960.03
2022-11-05T17:11:26.687Z,97957.88
2022-11-05T17:13:53.791Z,97963.81
2022-11-05T17:16:20.887Z,97964.63
2022-11-05T17:18:48.006Z,97972.69
2022-11-05T17:21:15.127Z,97983.19
2022-11-05T17:23:42.293Z,97978.88
2022-11-05T17:26:11.492Z,97976.72
2022-11-05T17:28:40.389Z,97982.94
2022-11-05T17:31:09.350Z,97979.41
2022-11-05T17:33:36.498Z,97981.03
2022-11-05T17:36:06.101Z,97982.38
2022-11-05T17:38:33.568Z,97968.06
2022-11-05T17:41:01.080Z,97977.50
2022-11-05T17:43:28.197Z,97974.81
2022-11-05T17:46:01.558Z,97979.41
2022-11-05T17:48:31.332Z,97989.38
2022-11-05T17:50:58.451Z,97986.13
2022-11-05T17:53:25.622Z,97979.94
2022-11-05T17:55:52.861Z,97987.19
2022-11-05T17:58:19.963Z,97980.22
2022-11-05T18:00:47.985Z,97989.88
2022-11-05T18:03:16.831Z,97992.59
2022-11-05T18:05:44.151Z,97997.19
2022-11-05T18:08:11.253Z,98001.47
2022-11-05T18:10:39.928Z,98003.34
2022-11-05T18:13:07.201Z,98006.34
2022-11-05T18:15:34.437Z,98017.59
2022-11-05T18:18:01.793Z,98013.03
2022-11-05T18:20:30.306Z,98014.91
2022-11-05T18:22:57.422Z,98014.38
2022-11-05T18:25:24.655Z,98014.63
2022-11-05T18:27:51.754Z,98017.63
2022-11-05T18:30:19.157Z,98025.72
2022-11-05T18:32:46.330Z,98020.34
2022-11-05T18:35:13.808Z,98025.97
2022-11-05T18:37:42.384Z,98021.38
2022-11-05T18:40:10.485Z,98025.16
2022-11-05T18:42:37.996Z,98029.75
2022-11-05T18:45:06.121Z,98025.69
2022-11-05T18:47:33.397Z,98032.41
2022-11-05T18:50:00.684Z,98030.78
2022-11-05T18:52:27.834Z,98031.59
2022-11-05T18:54:56.337Z,98031.34
2022-11-05T18:57:23.506Z,98035.88
2022-11-05T18:59:50.621Z,98040.75
2022-11-05T19:02:17.892Z,98039.19
2022-11-05T19:05:06.637Z,98040.78
2022-11-05T19:07:35.253Z,98042.69
2022-11-05T19:10:04.156Z,98043.25
2022-11-05T19:12:31.306Z,98050.25
2022-11-05T19:15:02.406Z,98044.31
2022-11-05T19:17:32.493Z,98032.72
2022-11-05T19:19:59.862Z,98054.25
2022-11-05T19:22:27.131Z,98042.69
2022-11-05T19:24:54.313Z,98049.69
2022-11-05T19:27:23.006Z,98056.41
2022-11-05T19:29:50.170Z,98049.94
2022-11-05T19:32:17.659Z,98036.72
2022-11-05T19:34:44.786Z,98045.88
2022-11-05T19:37:11.890Z,98038.59
2022-11-05T19:39:38.996Z,98045.06
2022-11-05T19:42:06.809Z,98045.59
2022-11-05T19:44:35.352Z,98045.88
2022-11-05T19:47:02.602Z,98050.47
2022-11-05T19:49:29.736Z,98058.03
2022-11-05T19:51:56.835Z,98056.66
2022-11-05T19:54:23.952Z,98065.28
2022-11-05T19:56:51.079Z,98055.31
2022-11-05T19:59:18.650Z,98062.09
2022-11-05T20:01:47.871Z,98065.84
2022-11-05T20:04:15.250Z,98062.63
2022-11-05T20:06:42.424Z,98070.16
2022-11-05T20:09:27.466Z,98069.34
2022-11-05T20:11:55.393Z,98073.94
2022-11-05T20:14:23.782Z,98078.22
2022-11-05T20:16:52.832Z,98069.31
2022-11-05T20:19:21.568Z,98073.88
2022-11-05T20:21:48.761Z,98077.38
2022-11-05T20:24:23.650Z,98076.56
2022-11-05T20:26:52.696Z,98071.19
2022-11-05T20:29:20.279Z,98070.13
2022-11-05T20:31:47.628Z,98075.53
2022-11-05T20:34:16.163Z,98069.81
2022-11-05T20:36:43.323Z,98069.03
2022-11-05T20:39:10.948Z,98074.72
2022-11-05T20:41:38.120Z,98078.78
2022-11-05T20:44:05.241Z,98080.41
2022-11-05T20:46:32.397Z,98075.03
2022-11-05T20:48:59.533Z,98084.41
2022-11-05T20:51:27.985Z,98075.25
2022-11-05T20:53:56.452Z,98073.66
2022-11-05T20:56:26.452Z,98050.72
2022-11-05T20:58:55.176Z,98085.78
2022-11-05T21:01:22.408Z,98089.81
2022-11-05T21:03:49.705Z,98085.47
2022-11-05T21:06:17.563Z,98090.06
2022-11-05T21:08:48.390Z,98092.22
2022-11-05T21:11:16.187Z,98090.84
2022-11-05T21:13:43.303Z,98101.63
2022-11-05T21:16:15.425Z,98105.34
2022-11-05T21:18:45.458Z,98103.47
2022-11-05T21:21:14.532Z,98102.66
2022-11-05T21:23:41.688Z,98099.75
2022-11-05T21:26:13.193Z,98098.94
2022-11-05T21:28:41.356Z,98095.41
2022-11-05T21:31:08.835Z,98096.56
2022-11-05T21:33:36.426Z,98098.47
2022-11-05T21:36:06.545Z,98098.47
2022-11-05T21:38:33.699Z,98095.75
2022-11-05T21:41:01.198Z,98100.88
2022-11-05T21:43:30.042Z,98100.31
2022-11-05T21:46:00.878Z,98090.31
2022-11-05T21:48:28.431Z,98088.72
2022-11-05T21:50:55.517Z,98084.44
2022-11-05T21:53:22.894Z,98082.56
2022-11-05T21:55:50.017Z,98079.28
2022-11-05T21:58:17.608Z,98084.94
2022-11-05T22:00:46.060Z,98090.59
2022-11-05T22:03:13.169Z,98083.34
2022-11-05T22:05:40.282Z,98085.50
2022-11-05T22:08:07.382Z,98082.00
2022-11-05T22:10:34.616Z,98090.34
2022-11-05T22:13:01.742Z,98090.06
2022-11-05T22:15:28.833Z,98084.41
2022-11-05T22:17:57.409Z,98082.00
2022-11-05T22:20:24.628Z,98083.09
2022-11-05T22:22:51.973Z,98085.78
2022-11-05T22:25:19.422Z,98086.06
2022-11-05T22:27:46.535Z,98088.47
2022-11-05T22:30:14.347Z,98089.81
2022-11-05T22:32:41.490Z,98085.47
2022-11-05T22:35:10.327Z,98084.91
2022-11-05T22:37:38.990Z,98086.00
2022-11-05T22:40:06.971Z,98084.41
2022-11-05T22:42:34.250Z,98089.50
2022-11-05T22:45:01.422Z,98093.25
2022-11-05T22:47:28.814Z,98087.59
2022-11-05T22:49:55.904Z,98091.59
2022-11-05T22:52:24.506Z,98098.34
2022-11-05T22:54:51.610Z,98095.66
2022-11-05T22:57:18.693Z,98104.03
2022-11-05T22:59:45.889Z,98107.25
2022-11-05T23:02:13.245Z,98104.56
2022-11-05T23:04:40.753Z,98104.03
2022-11-05T23:07:10.224Z,98108.63
2022-11-05T23:09:38.773Z,98111.56
2022-11-05T23:12:07.695Z,98115.06
2022-11-05T23:14:35.016Z,98123.66
2022-11-05T23:17:02.223Z,98118.00
2022-11-05T23:19:29.995Z,98108.59
2022-11-05T23:21:57.302Z,98112.09
2022-11-05T23:24:24.508Z,98109.91
2022-11-05T23:26:52.981Z,98120.38
2022-11-05T23:29:21.761Z,98112.06
2022-11-05T23:31:49.442Z,98109.09
2022-11-05T23:34:16.545Z,98104.00
2022-11-05T23:36:43.626Z,98109.63
2022-11-05T23:39:10.723Z,98096.41
2022-11-05T23:41:37.842Z,98096.66
2022-11-05T23:44:06.322Z,98086.47
2022-11-05T23:46:33.469Z,98083.50
2022-11-05T23:49:00.556Z,98086.75
2022-11-05T23:51:27.758Z,98089.22
2022-11-05T23:53:54.899Z,98080.56
2022-11-05T23:56:21.976Z,98096.47
2022-11-05T23:58:49.235Z,98092.69
